Time;durP1;ratioP1;P1;durP2;ratioP2;P2;SDS_P1;SDS_P2;PMS_P1;PMS_P2;Temp;Humidity;BMP_temperature;BMP_pressure;BME280_temperature;BME280_humidity;BME280_pressure;Samples;Min_cycle;Max_cycle;Signal;HPM_P1;HPM_P2
2023/07/02 00:00:12;;;;;;;10.90;2.55;;;;;;;12.03;100.00;100742.72;5035676;28;20424;-86
2023/07/02 00:02:37;;;;;;;10.10;2.55;;;;;;;11.89;100.00;100746.28;5035294;28;20064;-84
2023/07/02 00:05:04;;;;;;;9.70;2.47;;;;;;;11.70;100.00;100747.63;5018554;28;20063;-82
2023/07/02 00:07:31;;;;;;;6.28;1.92;;;;;;;11.60;100.00;100742.47;5059632;28;20101;-85
2023/07/02 00:09:56;;;;;;;4.78;1.63;;;;;;;11.58;100.00;100733.75;5045723;28;20029;-84
2023/07/02 00:12:24;;;;;;;10.85;1.98;;;;;;;11.58;100.00;100725.66;5025356;28;20498;-86
2023/07/02 00:14:52;;;;;;;9.82;1.95;;;;;;;11.67;100.00;100745.28;5019612;28;20099;-88
2023/07/02 00:17:21;;;;;;;13.93;2.75;;;;;;;11.71;100.00;100737.66;5052829;28;20025;-87
2023/07/02 00:19:46;;;;;;;8.95;2.28;;;;;;;11.75;100.00;100738.97;5051613;28;20065;-85
2023/07/02 00:22:12;;;;;;;5.15;1.65;;;;;;;11.75;100.00;100731.75;5021981;28;20079;-85
2023/07/02 00:24:38;;;;;;;9.73;1.95;;;;;;;11.78;100.00;100736.75;5055676;28;20032;-85
2023/07/02 00:27:06;;;;;;;17.00;3.42;;;;;;;11.76;100.00;100733.41;5039099;28;20044;-88
2023/07/02 00:29:32;;;;;;;10.18;2.33;;;;;;;11.78;100.00;100742.16;5055990;28;20037;-87
2023/07/02 00:31:58;;;;;;;10.45;2.67;;;;;;;11.76;100.00;100749.56;5022366;28;20094;-84
2023/07/02 00:34:23;;;;;;;8.13;2.85;;;;;;;11.75;100.00;100744.34;5022112;28;20033;-87
2023/07/02 00:36:49;;;;;;;8.60;2.17;;;;;;;11.68;100.00;100730.78;5022585;28;20032;-87
2023/07/02 00:39:16;;;;;;;10.32;2.42;;;;;;;11.72;100.00;100748.25;5038914;28;20076;-88
2023/07/02 00:41:42;;;;;;;7.90;1.98;;;;;;;11.70;100.00;100736.84;5038995;28;20025;-85
2023/07/02 00:44:09;;;;;;;8.48;2.17;;;;;;;11.68;100.00;100740.75;5022485;28;20467;-88
2023/07/02 00:46:34;;;;;;;8.27;2.47;;;;;;;11.62;100.00;100737.75;5038453;28;20414;-88
2023/07/02 00:49:02;;;;;;;6.32;1.70;;;;;;;11.67;100.00;100734.53;5055199;28;20517;-86
2023/07/02 00:51:27;;;;;;;13.07;2.78;;;;;;;11.68;100.00;100735.34;5038096;28;20044;-88
2023/07/02 00:53:55;;;;;;;13.00;2.20;;;;;;;11.73;100.00;100732.94;5022261;28;20041;-83
2023/07/02 00:56:21;;;;;;;7.50;1.80;;;;;;;11.77;100.00;100740.44;5056288;28;20112;-88
2023/07/02 00:58:50;;;;;;;5.68;1.83;;;;;;;11.79;100.00;100741.09;5021958;28;20036;-88
2023/07/02 01:01:25;;;;;;;6.65;2.22;;;;;;;11.80;100.00;100742.81;5054825;28;20087;-84
2023/07/02 01:03:53;;;;;;;8.68;2.58;;;;;;;11.76;100.00;100728.00;5038585;28;20375;-84
2023/07/02 01:06:25;;;;;;;7.57;1.73;;;;;;;11.88;100.00;100733.81;5021633;28;20036;-88
2023/07/02 01:08:58;;;;;;;8.23;2.35;;;;;;;12.03;100.00;100729.25;5038300;28;20459;-86
2023/07/02 01:11:31;;;;;;;8.60;2.05;;;;;;;12.05;100.00;100710.22;5054568;28;20033;-83
2023/07/02 01:14:02;;;;;;;9.00;2.92;;;;;;;12.14;100.00;100724.44;5054677;28;20047;-84
2023/07/02 01:16:32;;;;;;;11.35;2.00;;;;;;;12.10;100.00;100715.88;5038285;28;20051;-83
2023/07/02 01:19:02;;;;;;;8.77;2.78;;;;;;;12.17;100.00;100727.59;5054614;28;20430;-87
2023/07/02 01:21:28;;;;;;;5.68;2.33;;;;;;;12.14;100.00;100730.66;5038195;28;20460;-85
2023/07/02 01:23:53;;;;;;;10.43;1.95;;;;;;;12.10;100.00;100723.97;5054877;28;20052;-86
2023/07/02 01:26:19;;;;;;;8.93;2.38;;;;;;;12.12;100.00;100719.25;5021538;28;20029;-85
2023/07/02 01:28:49;;;;;;;12.70;2.22;;;;;;;12.08;100.00;100728.72;5021069;28;20086;-87
2023/07/02 01:31:14;;;;;;;11.18;3.08;;;;;;;11.99;100.00;100721.75;5021772;28;20029;-84
2023/07/02 01:33:42;;;;;;;7.57;2.47;;;;;;;12.01;100.00;100725.06;5037003;28;20082;-88
2023/07/02 01:36:08;;;;;;;8.18;1.80;;;;;;;12.03;100.00;100717.66;5021725;28;20045;-87
2023/07/02 01:38:37;;;;;;;8.98;1.95;;;;;;;12.02;100.00;100716.81;5054093;28;20501;-83
2023/07/02 01:41:04;;;;;;;10.40;2.38;;;;;;;12.02;100.00;100721.38;5038023;28;20043;-84
2023/07/02 01:43:30;;;;;;;9.02;2.15;;;;;;;12.04;100.00;100719.31;5021183;28;20067;-85
2023/07/02 01:45:56;;;;;;;9.00;1.92;;;;;;;12.06;100.00;100725.34;5021382;28;20091;-86
2023/07/02 01:48:24;;;;;;;9.70;2.03;;;;;;;12.07;100.00;100719.78;5054291;28;20032;-85
2023/07/02 01:50:50;;;;;;;8.98;2.22;;;;;;;12.18;100.00;100723.88;5020931;28;20044;-85
2023/07/02 01:53:16;;;;;;;7.07;1.85;;;;;;;12.23;100.00;100720.63;5020914;28;20033;-87
2023/07/02 01:55:44;;;;;;;8.45;2.85;;;;;;;12.22;100.00;100716.25;5021148;28;20107;-87
2023/07/02 01:58:12;;;;;;;10.90;1.85;;;;;;;12.28;100.00;100727.13;5021332;28;20090;-84
2023/07/02 02:00:38;;;;;;;4.38;1.73;;;;;;;12.29;100.00;100726.09;5037260;28;20036;-85
2023/07/02 02:03:04;;;;;;;9.02;2.08;;;;;;;12.27;100.00;100725.44;5020770;28;20443;-86
2023/07/02 02:05:35;;;;;;;7.75;2.10;;;;;;;12.27;100.00;100724.59;5020330;28;20506;-85
2023/07/02 02:08:00;;;;;;;7.10;1.70;;;;;;;12.23;100.00;100724.16;5053550;28;20032;-83
2023/07/02 02:10:26;;;;;;;9.68;2.40;;;;;;;12.24;100.00;100733.06;5037115;28;20025;-86
2023/07/02 02:12:52;;;;;;;9.55;1.90;;;;;;;12.24;100.00;100723.13;5020375;28;20044;-86
2023/07/02 02:15:17;;;;;;;8.40;2.38;;;;;;;12.23;100.00;100717.94;5037173;28;20033;-83
2023/07/02 02:17:43;;;;;;;9.02;2.70;;;;;;;12.23;100.00;100724.16;5020708;28;20509;-84
2023/07/02 02:20:09;;;;;;;8.25;2.40;;;;;;;12.22;100.00;100717.06;5020682;28;20493;-85
2023/07/02 02:22:37;;;;;;;8.73;2.38;;;;;;;12.18;100.00;100710.41;5019985;28;20037;-85
2023/07/02 02:25:04;;;;;;;7.32;2.60;;;;;;;12.18;100.00;100715.78;5036519;28;20110;-85
2023/07/02 02:27:29;;;;;;;11.05;1.80;;;;;;;12.14;100.00;100714.47;5053372;28;20021;-86
2023/07/02 02:29:57;;;;;;;12.10;2.55;;;;;;;12.13;100.00;100712.81;5027934;28;20437;-82
2023/07/02 02:32:24;;;;;;;6.45;2.00;;;;;;;12.09;100.00;100715.06;5042486;28;20510;-85
2023/07/02 02:34:52;;;;;;;8.20;2.28;;;;;;;11.98;100.00;100704.72;5036704;28;20029;-86
2023/07/02 02:37:18;;;;;;;4.55;1.55;;;;;;;12.02;100.00;100714.13;5036500;28;20392;-86
2023/07/02 02:39:44;;;;;;;11.48;2.10;;;;;;;11.94;100.00;100703.44;5020113;28;20040;-86
2023/07/02 02:42:10;;;;;;;11.90;3.03;;;;;;;11.95;100.00;100715.88;5036316;28;20036;-85
2023/07/02 02:44:36;;;;;;;9.75;2.38;;;;;;;11.91;100.00;100713.72;5036315;28;20029;-86
2023/07/02 02:47:02;;;;;;;10.45;2.08;;;;;;;11.87;100.00;100710.59;5036112;28;20404;-85
2023/07/02 02:49:28;;;;;;;11.20;2.20;;;;;;;11.82;100.00;100700.31;5036201;28;20033;-84
2023/07/02 02:51:53;;;;;;;10.32;2.67;;;;;;;11.83;100.00;100695.81;5019112;28;20040;-84
2023/07/02 02:54:19;;;;;;;10.63;2.88;;;;;;;11.86;100.00;100698.97;5035795;28;20035;-86
2023/07/02 02:56:45;;;;;;;7.43;2.20;;;;;;;11.84;100.00;100689.38;5019626;28;20438;-85
2023/07/02 02:59:10;;;;;;;9.10;1.77;;;;;;;11.88;100.00;100693.38;5036268;28;20460;-86
2023/07/02 03:01:38;;;;;;;9.23;2.35;;;;;;;11.94;100.00;100703.44;5019731;28;20482;-85
2023/07/02 03:04:04;;;;;;;8.75;2.08;;;;;;;11.93;100.00;100699.06;5036607;28;20036;-84
2023/07/02 03:06:30;;;;;;;8.40;2.10;;;;;;;11.98;100.00;100699.34;5019428;28;20037;-84
2023/07/02 03:08:56;;;;;;;8.02;2.00;;;;;;;12.04;100.00;100708.53;5035740;28;20036;-83
2023/07/02 03:11:21;;;;;;;6.65;2.17;;;;;;;12.02;100.00;100689.03;5035766;28;20387;-85
2023/07/02 03:13:48;;;;;;;10.27;2.05;;;;;;;12.03;100.00;100701.47;5036137;28;20111;-83
2023/07/02 03:16:14;;;;;;;12.77;3.15;;;;;;;12.04;100.00;100701.31;5019617;28;20491;-86
2023/07/02 03:18:40;;;;;;;9.68;1.80;;;;;;;12.04;100.00;100697.75;5036258;28;20491;-85
2023/07/02 03:21:05;;;;;;;4.68;1.65;;;;;;;12.03;100.00;100696.09;5019677;28;20082;-84
2023/07/02 03:23:31;;;;;;;7.30;2.00;;;;;;;12.04;100.00;100697.75;5018922;28;20056;-85
2023/07/02 03:26:02;;;;;;;7.85;1.95;;;;;;;12.03;100.00;100694.22;5019680;28;20094;-85
2023/07/02 03:28:28;;;;;;;5.47;1.25;;;;;;;12.03;100.00;100686.13;5019534;28;20040;-86
2023/07/02 03:30:57;;;;;;;10.80;2.20;;;;;;;12.04;99.99;100689.66;5035700;28;20375;-86
2023/07/02 03:33:22;;;;;;;9.50;2.22;;;;;;;12.05;99.76;100688.66;5019774;28;20040;-85
2023/07/02 03:35:48;;;;;;;9.57;2.45;;;;;;;12.06;99.14;100687.63;5019531;28;20029;-84
2023/07/02 03:38:14;;;;;;;6.95;1.85;;;;;;;12.04;99.21;100682.44;5019226;28;20387;-84
2023/07/02 03:40:40;;;;;;;4.50;1.63;;;;;;;12.01;99.43;100688.22;5019299;28;20090;-83
2023/07/02 03:43:07;;;;;;;7.68;2.05;;;;;;;12.01;99.31;100688.22;5019499;28;20025;-81
2023/07/02 03:45:32;;;;;;;7.53;1.60;;;;;;;11.98;99.34;100679.66;5035644;28;20033;-83
2023/07/02 03:48:01;;;;;;;7.57;2.58;;;;;;;11.95;99.64;100675.47;5035426;28;20484;-84
2023/07/02 03:50:26;;;;;;;4.95;1.70;;;;;;;11.96;99.91;100690.63;5035478;28;20040;-86
2023/07/02 03:52:54;;;;;;;9.95;1.63;;;;;;;11.91;100.00;100682.25;5051835;28;20033;-86
2023/07/02 03:55:20;;;;;;;9.60;1.50;;;;;;;11.91;100.00;100690.34;5036110;28;20112;-84
2023/07/02 03:57:46;;;;;;;9.18;1.65;;;;;;;11.86;100.00;100680.13;5023446;28;20444;-84
2023/07/02 04:00:12;;;;;;;7.30;2.00;;;;;;;11.88;100.00;100682.63;5023265;28;20079;-84
2023/07/02 04:02:38;;;;;;;9.02;2.63;;;;;;;11.85;100.00;100678.44;5039684;28;20467;-85
2023/07/02 04:05:04;;;;;;;8.18;1.33;;;;;;;11.84;100.00;100676.75;5039609;28;20047;-82
2023/07/02 04:07:30;;;;;;;5.72;1.55;;;;;;;11.85;100.00;100685.66;5039123;28;20533;-85
2023/07/02 04:09:56;;;;;;;8.73;2.22;;;;;;;11.83;100.00;100680.47;5022825;28;20025;-83
2023/07/02 04:12:21;;;;;;;7.93;1.83;;;;;;;11.79;100.00;100687.22;5023001;28;20029;-84
2023/07/02 04:14:47;;;;;;;6.13;2.30;;;;;;;11.78;100.00;100688.28;5023356;28;20067;-84
2023/07/02 04:17:13;;;;;;;5.70;1.42;;;;;;;11.72;100.00;100683.59;5055523;28;20036;-85
2023/07/02 04:19:38;;;;;;;2.17;0.98;;;;;;;11.73;100.00;100695.22;5056919;28;20399;-84
2023/07/02 04:22:04;;;;;;;5.85;1.60;;;;;;;11.71;100.00;100684.63;5023023;28;20040;-86
2023/07/02 04:24:37;;;;;;;6.47;2.05;;;;;;;11.73;100.00;100696.06;5022646;28;20041;-84
2023/07/02 04:27:03;;;;;;;5.55;1.73;;;;;;;11.73;100.00;100681.75;5023209;28;20047;-85
2023/07/02 04:29:29;;;;;;;7.07;1.88;;;;;;;11.68;100.00;100679.63;5022116;28;20029;-82
2023/07/02 04:31:54;;;;;;;5.28;1.35;;;;;;;11.64;100.00;100681.00;5055482;28;20036;-83
2023/07/02 04:34:21;;;;;;;4.93;2.08;;;;;;;11.56;100.00;100665.75;5039244;28;20521;-86
2023/07/02 04:36:49;;;;;;;7.75;1.83;;;;;;;11.52;100.00;100667.16;5055262;28;20029;-85
2023/07/02 04:39:17;;;;;;;5.50;1.50;;;;;;;11.55;100.00;100672.19;5023570;28;20037;-86
2023/07/02 04:41:45;;;;;;;6.85;2.03;;;;;;;11.59;100.00;100670.81;5022522;28;20600;-86
2023/07/02 04:44:10;;;;;;;2.85;1.30;;;;;;;11.71;100.00;100671.16;5030303;28;20479;-86
2023/07/02 04:46:36;;;;;;;5.22;1.67;;;;;;;11.76;100.00;100673.31;5026762;28;20037;-86
2023/07/02 04:49:02;;;;;;;8.07;1.65;;;;;;;11.80;100.00;100675.47;5022151;28;20041;-86
2023/07/02 04:51:30;;;;;;;5.07;1.30;;;;;;;11.80;100.00;100664.69;5056436;28;20028;-84
2023/07/02 04:53:56;;;;;;;4.53;1.38;;;;;;;11.88;100.00;100667.31;5021951;28;20459;-83
2023/07/02 04:56:22;;;;;;;9.35;1.40;;;;;;;11.95;99.86;100669.25;5038037;28;20025;-84
2023/07/02 04:58:50;;;;;;;8.07;1.75;;;;;;;12.03;97.98;100674.53;5022372;28;20110;-86
2023/07/02 05:01:16;;;;;;;8.57;1.55;;;;;;;11.97;96.83;100677.97;5038515;28;20032;-86
2023/07/02 05:03:41;;;;;;;6.30;2.03;;;;;;;12.02;95.60;100683.66;5021819;28;20091;-84
2023/07/02 05:06:07;;;;;;;6.65;1.90;;;;;;;12.10;94.13;100691.63;5037748;28;20060;-84
2023/07/02 05:08:32;;;;;;;7.90;2.22;;;;;;;12.21;91.65;100695.72;5020792;28;20037;-85
2023/07/02 05:10:58;;;;;;;8.30;1.98;;;;;;;12.06;92.93;100693.00;5054323;28;20035;-84
2023/07/02 05:13:27;;;;;;;4.82;1.30;;;;;;;11.74;97.34;100700.41;5021911;28;20029;-85
2023/07/02 05:15:52;;;;;;;7.28;1.80;;;;;;;11.37;100.00;100687.84;5038155;28;20039;-84
2023/07/02 05:18:20;;;;;;;4.93;1.60;;;;;;;11.13;100.00;100688.91;5021677;28;20422;-84
2023/07/02 05:20:48;;;;;;;9.07;1.58;;;;;;;11.05;100.00;100691.66;5038464;28;20083;-82
2023/07/02 05:23:14;;;;;;;9.77;2.28;;;;;;;11.00;100.00;100690.31;5021781;28;20060;-87
2023/07/02 05:25:40;;;;;;;6.60;1.55;;;;;;;10.99;100.00;100694.06;5039359;28;20072;-83
2023/07/02 05:28:06;;;;;;;7.30;1.73;;;;;;;11.01;100.00;100688.50;5054999;28;20055;-83
2023/07/02 05:30:32;;;;;;;10.13;2.28;;;;;;;11.08;100.00;100688.59;5038142;28;20471;-85
2023/07/02 05:33:01;;;;;;;4.90;1.10;;;;;;;11.13;100.00;100683.50;5021282;28;20029;-84
2023/07/02 05:35:27;;;;;;;12.02;2.50;;;;;;;11.20;100.00;100676.41;5021746;28;20063;-85
2023/07/02 05:37:52;;;;;;;13.00;2.67;;;;;;;11.33;100.00;100687.38;5038059;28;20072;-89
2023/07/02 05:40:18;;;;;;;6.68;2.38;;;;;;;11.40;100.00;100677.53;5020946;28;20033;-86
2023/07/02 05:42:44;;;;;;;4.43;1.90;;;;;;;11.44;100.00;100676.16;5054296;28;20158;-84
2023/07/02 05:45:10;;;;;;;6.50;1.90;;;;;;;11.50;100.00;100679.13;5054933;28;20081;-82
2023/07/02 05:47:36;;;;;;;6.90;2.35;;;;;;;11.49;100.00;100683.69;5061391;28;20029;-87
2023/07/02 05:50:02;;;;;;;4.38;1.60;;;;;;;11.50;100.00;100679.13;5041731;28;20058;-87
2023/07/02 05:52:27;;;;;;;6.07;1.70;;;;;;;11.49;100.00;100677.47;5023141;28;20552;-88
2023/07/02 05:54:55;;;;;;;6.82;1.90;;;;;;;11.52;100.00;100677.09;5021176;28;20041;-85
2023/07/02 05:57:21;;;;;;;10.60;2.55;;;;;;;11.58;100.00;100679.88;5021358;28;20118;-84
2023/07/02 05:59:52;;;;;;;4.40;1.58;;;;;;;11.70;100.00;100677.59;5053749;28;20088;-83
2023/07/02 06:02:17;;;;;;;3.10;1.52;;;;;;;11.87;100.00;100687.16;5037819;28;20029;-86
2023/07/02 06:04:43;;;;;;;10.30;1.70;;;;;;;12.02;100.00;100686.34;5053947;28;20044;-84
2023/07/02 06:07:09;;;;;;;8.55;1.55;;;;;;;12.18;100.00;100688.84;5036971;28;20028;-88
2023/07/02 06:09:34;;;;;;;8.07;2.10;;;;;;;12.28;100.00;100683.16;5020688;28;20360;-87
2023/07/02 06:12:02;;;;;;;8.45;2.13;;;;;;;12.36;100.00;100669.56;5036704;28;20075;-87
2023/07/02 06:14:30;;;;;;;5.05;1.60;;;;;;;12.49;100.00;100682.34;5021078;28;20041;-88
2023/07/02 06:16:57;;;;;;;11.82;2.20;;;;;;;12.53;100.00;100670.16;5053216;28;20039;-87
2023/07/02 06:19:23;;;;;;;8.20;2.20;;;;;;;12.59;100.00;100672.06;5036888;28;20064;-84
2023/07/02 06:21:48;;;;;;;11.95;2.35;;;;;;;12.63;100.00;100680.66;5037058;28;20068;-84
2023/07/02 06:24:14;;;;;;;7.85;1.90;;;;;;;12.64;100.00;100676.91;5020384;28;20037;-85
2023/07/02 06:26:39;;;;;;;10.43;2.30;;;;;;;12.71;100.00;100685.91;5036178;28;20045;-88
2023/07/02 06:29:05;;;;;;;7.00;1.85;;;;;;;12.74;100.00;100689.06;5036668;28;20048;-87
2023/07/02 06:31:31;;;;;;;4.40;1.58;;;;;;;12.79;100.00;100684.97;5036592;28;20021;-84
2023/07/02 06:33:57;;;;;;;4.95;1.48;;;;;;;12.83;100.00;100691.63;5020191;28;20498;-83
2023/07/02 06:36:23;;;;;;;6.57;1.73;;;;;;;12.86;100.00;100693.94;5020177;28;20112;-85
2023/07/02 06:38:48;;;;;;;2.33;1.08;;;;;;;12.91;100.00;100695.06;5020214;28;20028;-84
2023/07/02 06:41:14;;;;;;;4.20;1.73;;;;;;;12.90;100.00;100704.16;5035539;28;20029;-86
2023/07/02 06:43:43;;;;;;;7.20;2.97;;;;;;;12.72;100.00;100685.72;5019976;28;20087;-84
2023/07/02 06:46:10;;;;;;;4.93;1.65;;;;;;;12.83;97.37;100700.56;5036157;28;20043;-85
2023/07/02 06:48:36;;;;;;;4.28;1.40;;;;;;;12.90;97.46;100687.13;5019918;28;20048;-86
2023/07/02 06:51:02;;;;;;;6.00;1.65;;;;;;;13.14;94.04;100694.00;5036139;28;20464;-84
2023/07/02 06:53:28;;;;;;;7.40;1.80;;;;;;;13.32;94.22;100683.59;5019657;28;20384;-83
2023/07/02 06:55:53;;;;;;;11.25;2.03;;;;;;;13.53;93.15;100690.81;5024207;28;20144;-83
2023/07/02 06:58:19;;;;;;;5.82;1.67;;;;;;;13.71;92.94;100692.19;5030334;28;20028;-84
2023/07/02 07:00:46;;;;;;;7.45;2.05;;;;;;;13.80;91.97;100691.81;5056478;28;20033;-86
2023/07/02 07:03:11;;;;;;;8.50;1.75;;;;;;;13.99;92.04;100690.25;5019448;28;20387;-84
2023/07/02 07:05:37;;;;;;;6.25;1.27;;;;;;;14.30;90.87;100683.56;5019573;28;20119;-83
2023/07/02 07:08:03;;;;;;;5.97;1.70;;;;;;;14.54;88.85;100690.31;5019652;28;20491;-86
2023/07/02 07:10:33;;;;;;;1.95;1.10;;;;;;;14.73;86.80;100694.13;5019014;28;20436;-82
2023/07/02 07:13:02;;;;;;;6.43;1.77;;;;;;;14.85;85.33;100686.25;5052268;28;20029;-86
2023/07/02 07:15:33;;;;;;;5.97;1.40;;;;;;;14.98;85.07;100693.53;5035967;28;20040;-84
2023/07/02 07:18:04;;;;;;;4.13;1.55;;;;;;;15.08;84.38;100680.41;5035842;28;20060;-84
2023/07/02 07:20:31;;;;;;;8.85;1.90;;;;;;;15.27;83.64;100685.03;5052181;28;20029;-86
2023/07/02 07:22:57;;;;;;;4.63;1.23;;;;;;;15.51;82.82;100683.56;5019132;28;20028;-84
2023/07/02 07:25:23;;;;;;;8.65;2.30;;;;;;;15.69;81.70;100687.50;5019418;28;20055;-83
2023/07/02 07:27:49;;;;;;;6.65;1.85;;;;;;;15.78;81.26;100683.53;5019370;28;20478;-84
2023/07/02 07:30:14;;;;;;;7.13;1.83;;;;;;;15.90;80.37;100684.53;5017423;28;20044;-84
2023/07/02 07:32:41;;;;;;;4.93;1.45;;;;;;;15.96;78.81;100669.31;5019230;28;20079;-82
2023/07/02 07:35:08;;;;;;;4.45;1.63;;;;;;;16.25;77.93;100682.34;5035747;28;20537;-83
2023/07/02 07:37:34;;;;;;;4.68;1.52;;;;;;;16.48;76.03;100683.69;5052993;28;20052;-86
2023/07/02 07:39:59;;;;;;;6.32;1.92;;;;;;;16.54;72.80;100687.41;5035684;28;20040;-85
2023/07/02 07:42:25;;;;;;;7.30;1.60;;;;;;;16.52;73.13;100695.78;5019031;28;20032;-84
2023/07/02 07:44:51;;;;;;;11.07;3.03;;;;;;;16.42;71.98;100685.41;5019387;28;20044;-83
2023/07/02 07:47:16;;;;;;;8.05;2.45;;;;;;;16.37;71.06;100687.91;5020010;28;20029;-83
2023/07/02 07:49:42;;;;;;;5.57;1.77;;;;;;;16.44;70.56;100686.03;5036575;28;20025;-83
2023/07/02 07:52:08;;;;;;;4.45;1.35;;;;;;;16.60;67.78;100690.13;5019328;28;20075;-83
2023/07/02 07:54:37;;;;;;;6.97;1.30;;;;;;;16.70;67.65;100690.47;5034723;28;20406;-86
2023/07/02 07:57:06;;;;;;;7.85;1.20;;;;;;;16.80;66.00;100689.19;5019950;28;20406;-84
2023/07/02 07:59:36;;;;;;;1.63;0.70;;;;;;;16.59;66.02;100671.31;5019176;28;20128;-84
2023/07/02 08:02:03;;;;;;;5.55;1.25;;;;;;;16.29;65.72;100674.59;5019661;28;20529;-85
2023/07/02 08:04:29;;;;;;;4.35;1.10;;;;;;;16.16;66.00;100694.47;5051912;28;20016;-86
2023/07/02 08:06:56;;;;;;;3.05;0.95;;;;;;;16.21;66.17;100689.25;5051604;28;20040;-85
2023/07/02 08:09:25;;;;;;;4.20;1.20;;;;;;;16.34;64.28;100682.94;5035455;28;20493;-86
2023/07/02 08:11:51;;;;;;;5.38;1.20;;;;;;;16.54;63.56;100695.56;5018909;28;20033;-86
2023/07/02 08:14:20;;;;;;;7.13;1.83;;;;;;;16.78;62.61;100697.56;5018625;28;20094;-86
2023/07/02 08:16:46;;;;;;;9.02;0.90;;;;;;;16.90;63.02;100694.97;5052006;28;20029;-83
2023/07/02 08:19:11;;;;;;;4.00;1.27;;;;;;;16.84;63.22;100696.69;5018846;28;20090;-84
2023/07/02 08:21:40;;;;;;;6.18;1.50;;;;;;;16.78;63.47;100703.00;5018889;28;20036;-84
2023/07/02 08:24:06;;;;;;;5.22;1.10;;;;;;;16.87;63.98;100695.41;5035530;28;20090;-84
2023/07/02 08:26:32;;;;;;;3.55;1.02;;;;;;;16.92;63.92;100691.00;5019031;28;20037;-84
2023/07/02 08:28:57;;;;;;;4.72;1.63;;;;;;;17.08;64.50;100697.78;5018583;28;20514;-83
2023/07/02 08:31:23;;;;;;;8.00;1.50;;;;;;;17.37;63.70;100692.75;5051231;28;20586;-83
2023/07/02 08:33:49;;;;;;;5.20;1.83;;;;;;;17.60;63.29;100703.00;5018663;28;20029;-83
2023/07/02 08:36:16;;;;;;;6.18;1.45;;;;;;;17.78;62.40;100702.19;5018518;28;20091;-82
2023/07/02 08:38:43;;;;;;;2.72;1.20;;;;;;;18.08;62.15;100686.00;5052720;28;20025;-83
2023/07/02 08:41:09;;;;;;;4.40;1.30;;;;;;;18.20;61.43;100696.94;5042255;28;20040;-81
2023/07/02 08:43:35;;;;;;;7.43;1.77;;;;;;;18.61;60.56;100688.03;5057752;28;20029;-80
2023/07/02 08:46:02;;;;;;;4.82;1.30;;;;;;;19.03;58.19;100692.72;5022296;28;20095;-82
2023/07/02 08:48:29;;;;;;;5.97;1.40;;;;;;;18.64;60.11;100694.91;5006286;28;20386;-82
2023/07/02 08:50:56;;;;;;;4.07;1.52;;;;;;;18.13;61.60;100704.38;5039043;28;20372;-81
2023/07/02 08:53:29;;;;;;;6.32;1.20;;;;;;;17.32;62.90;100714.31;5022306;28;20029;-82
2023/07/02 08:55:55;;;;;;;;;;;;;;;16.20;69.70;100701.16;5040220;28;20037;-81
2023/07/02 08:58:21;;;;;;;5.72;1.58;;;;;;;15.82;73.96;100707.31;5055302;28;19913;-82
2023/07/02 09:01:09;;;;;;;4.22;1.52;;;;;;;16.09;72.85;100704.53;5038408;28;20033;-81
2023/07/02 09:03:37;;;;;;;4.50;1.17;;;;;;;16.59;68.61;100702.03;5022202;28;20438;-81
2023/07/02 09:06:06;;;;;;;4.47;1.38;;;;;;;17.26;65.91;100705.16;5054954;28;20095;-81
2023/07/02 09:08:36;;;;;;;3.03;1.80;;;;;;;18.00;63.83;100700.72;5022143;28;20064;-79
2023/07/02 09:11:19;;;;;;;7.20;1.25;;;;;;;18.75;60.00;100691.44;5038359;28;20056;-82
2023/07/02 09:13:49;;;;;;;4.03;1.60;;;;;;;20.47;55.44;100694.91;5055027;28;20028;-82
2023/07/02 09:16:26;;;;;;;8.13;2.17;;;;;;;23.70;46.23;100680.84;5037617;28;20029;-83
2023/07/02 09:19:19;;;;;;;5.45;1.60;;;;;;;24.03;44.35;100687.94;5021882;28;20029;-82
2023/07/02 09:21:49;;;;;;;2.95;1.30;;;;;;;23.87;43.55;100677.97;5052703;28;20091;-83
2023/07/02 09:24:22;;;;;;;3.25;0.90;;;;;;;22.93;43.35;100685.72;5055501;28;20029;-82
2023/07/02 09:26:53;;;;;;;7.75;1.45;;;;;;;21.74;46.43;100698.22;5054574;28;20113;-83
2023/07/02 09:29:29;;;;;;;5.20;1.67;;;;;;;21.01;47.51;100695.41;5054141;28;20044;-83
2023/07/02 09:31:57;;;;;;;3.70;1.45;;;;;;;20.25;47.57;100696.66;5021472;28;20056;-82
2023/07/02 09:34:30;;;;;;;6.28;1.45;;;;;;;19.45;48.93;100684.44;5037839;28;20110;-81
2023/07/02 09:36:56;;;;;;;;;;;;;;;18.98;50.26;100692.59;5054801;28;20033;-82
2023/07/02 09:39:27;;;;;;;5.70;1.60;;;;;;;18.93;50.46;100667.94;5071113;28;19909;-82
2023/07/02 09:41:55;;;;;;;6.45;1.55;;;;;;;19.13;51.16;100679.31;5005510;28;20118;-82
2023/07/02 09:44:20;;;;;;;4.97;1.60;;;;;;;19.53;50.50;100687.69;5057088;28;20029;-82
2023/07/02 09:47:02;;;;;;;4.13;1.40;;;;;;;22.07;45.84;100682.78;5029973;28;20039;-82
2023/07/02 09:49:32;;;;;;;4.63;1.30;;;;;;;21.98;43.69;100687.06;5055600;28;20087;-77
2023/07/02 09:52:00;;;;;;;6.45;1.67;;;;;;;20.99;45.89;100681.16;5020032;28;20136;-78
2023/07/02 09:54:27;;;;;;;6.15;1.88;;;;;;;19.79;46.95;100680.09;5052400;28;20032;-79
2023/07/02 09:56:52;;;;;;;7.53;1.83;;;;;;;18.76;49.70;100684.94;5020785;28;20471;-78
2023/07/02 09:59:19;;;;;;;10.32;1.67;;;;;;;18.12;51.78;100680.91;5037268;28;20068;-78
2023/07/02 10:01:45;;;;;;;4.38;1.55;;;;;;;18.05;53.78;100686.44;5053131;28;20031;-78
2023/07/02 10:04:15;;;;;;;8.05;1.85;;;;;;;18.48;54.16;100677.31;5037207;28;20452;-79
2023/07/02 10:06:55;;;;;;;8.18;1.63;;;;;;;19.22;52.70;100691.56;5053231;28;20456;-77
2023/07/02 10:09:22;;;;;;;5.38;1.70;;;;;;;19.84;48.41;100693.84;5036567;28;20037;-78
2023/07/02 10:11:48;;;;;;;4.65;1.52;;;;;;;20.39;47.98;100670.72;5020316;28;20037;-78
2023/07/02 10:14:14;;;;;;;5.22;1.20;;;;;;;20.66;46.30;100686.53;5037181;28;20103;-78
2023/07/02 10:16:55;;;;;;;7.05;1.73;;;;;;;20.48;47.33;100682.91;5053079;28;20028;-78
2023/07/02 10:19:21;;;;;;;6.10;1.83;;;;;;;20.35;47.50;100683.19;5020254;28;20037;-78
2023/07/02 10:22:01;;;;;;;7.10;1.63;;;;;;;20.09;47.86;100687.31;5052886;28;20258;-80
2023/07/02 10:24:26;;;;;;;7.40;2.10;;;;;;;19.90;48.90;100686.59;5036509;28;20040;-79
2023/07/02 10:27:00;;;;;;;8.43;2.05;;;;;;;19.83;48.85;100685.91;5035597;28;20387;-78
2023/07/02 10:29:27;;;;;;;7.70;1.75;;;;;;;19.86;48.55;100686.25;5034731;28;20033;-83
2023/07/02 10:31:57;;;;;;;5.32;1.30;;;;;;;19.69;49.21;100686.16;5018781;28;20068;-82
2023/07/02 10:34:35;;;;;;;9.85;2.35;;;;;;;19.62;47.93;100682.69;5052383;28;20049;-84
2023/07/02 10:37:02;;;;;;;6.25;2.22;;;;;;;19.58;48.15;100650.66;5050309;28;20080;-83
2023/07/02 10:39:34;;;;;;;7.50;1.83;;;;;;;19.96;47.17;100688.41;5051188;28;20032;-83
2023/07/02 10:42:07;;;;;;;8.40;1.90;;;;;;;19.86;47.73;100682.72;5049472;28;20028;-84
2023/07/02 10:44:47;;;;;;;4.93;1.70;;;;;;;20.02;46.86;100676.50;5016410;28;20033;-83
2023/07/02 10:47:13;;;;;;;6.65;1.70;;;;;;;20.21;47.09;100683.44;5032135;28;20036;-84
2023/07/02 10:49:39;;;;;;;6.43;1.65;;;;;;;20.27;47.01;100680.84;5033976;28;20032;-84
2023/07/02 10:52:05;;;;;;;5.72;1.38;;;;;;;20.25;48.58;100683.81;5034559;28;20391;-84
2023/07/02 10:54:41;;;;;;;2.40;1.08;;;;;;;20.32;48.04;100683.66;5051542;28;20035;-83
2023/07/02 10:57:08;;;;;;;2.90;1.50;;;;;;;20.23;47.23;100674.22;5018937;28;20036;-82
2023/07/02 10:59:34;;;;;;;6.72;1.60;;;;;;;20.19;47.86;100669.25;5055197;28;20098;-83
2023/07/02 11:02:02;;;;;;;3.00;1.30;;;;;;;20.17;47.53;100670.56;5043126;28;20033;-83
2023/07/02 11:04:28;;;;;;;5.13;1.35;;;;;;;20.21;47.21;100642.50;5053589;28;20029;-83
2023/07/02 11:06:56;;;;;;;9.02;1.70;;;;;;;21.37;46.13;100679.59;5034983;28;20039;-83
2023/07/02 11:09:23;;;;;;;4.93;1.67;;;;;;;22.00;43.94;100671.22;5053857;28;20067;-82
2023/07/02 11:11:54;;;;;;;6.13;1.25;;;;;;;22.58;42.79;100678.78;5052366;28;20021;-83
2023/07/02 11:14:31;;;;;;;4.03;1.45;;;;;;;22.16;43.25;100682.09;5052126;28;20463;-83
2023/07/02 11:16:58;;;;;;;8.00;2.45;;;;;;;21.94;43.63;100682.09;5035744;28;20037;-82
2023/07/02 11:19:24;;;;;;;6.30;1.63;;;;;;;21.98;43.87;100676.13;5019496;28;20059;-82